Time;durP1;ratioP1;P1;durP2;ratioP2;P2;SDS_P1;SDS_P2;PMS_P1;PMS_P2;Temp;Humidity;BMP_temperature;BMP_pressure;BME280_temperature;BME280_humidity;BME280_pressure;Samples;Min_cycle;Max_cycle;Signal;HPM_P1;HPM_P2
2023/01/08 00:02:17;;;;;;;5.85;5.25;;;;;;;;;;5096493;28;20138;-87
2023/01/08 00:04:44;;;;;;;5.45;4.95;;;;;;;;;;5096302;28;20043;-88
2023/01/08 00:07:11;;;;;;;10.10;5.85;;;;;;;;;;5096348;28;20048;-88
2023/01/08 00:09:39;;;;;;;8.98;6.20;;;;;;;;;;5096133;28;20051;-88
2023/01/08 00:12:06;;;;;;;7.25;5.97;;;;;;;;;;5096170;28;20075;-87
2023/01/08 00:14:33;;;;;;;8.68;6.50;;;;;;;;;;5096285;28;20052;-87
2023/01/08 00:17:01;;;;;;;13.98;6.78;;;;;;;;;;5095466;28;20056;-88
2023/01/08 00:19:30;;;;;;;18.80;8.48;;;;;;;;;;5095843;28;20056;-88
2023/01/08 00:21:57;;;;;;;13.15;7.70;;;;;;;;;;5095746;28;20131;-88
2023/01/08 00:24:24;;;;;;;14.02;7.82;;;;;;;;;;5095779;28;20052;-88
2023/01/08 00:26:51;;;;;;;13.65;7.45;;;;;;;;;;5095784;28;20122;-88
2023/01/08 00:29:18;;;;;;;8.80;6.47;;;;;;;;;;5095484;28;20052;-88
2023/01/08 00:31:45;;;;;;;15.68;6.32;;;;;;;;;;5095791;28;20059;-88
2023/01/08 00:34:12;;;;;;;8.43;5.97;;;;;;;;;;5095736;28;20078;-88
2023/01/08 00:36:40;;;;;;;11.35;6.25;;;;;;;;;;5095381;28;20058;-88
2023/01/08 00:39:07;;;;;;;8.95;5.95;;;;;;;;;;5095567;28;20481;-88
2023/01/08 00:41:34;;;;;;;11.20;6.13;;;;;;;;;;5095720;28;20048;-89
2023/01/08 00:44:01;;;;;;;12.05;6.95;;;;;;;;;;5095476;28;20475;-88
2023/01/08 00:46:28;;;;;;;12.10;7.95;;;;;;;;;;5095193;28;20415;-88
2023/01/08 00:48:55;;;;;;;9.50;7.75;;;;;;;;;;5095433;28;20066;-88
2023/01/08 00:51:23;;;;;;;12.98;7.50;;;;;;;;;;5094377;28;20048;-88
2023/01/08 00:53:50;;;;;;;15.57;8.20;;;;;;;;;;5095117;28;20066;-88
2023/01/08 00:56:17;;;;;;;9.68;7.80;;;;;;;;;;5095254;28;20058;-88
2023/01/08 00:58:44;;;;;;;12.35;7.78;;;;;;;;;;5095107;28;20436;-88
2023/01/08 01:01:12;;;;;;;11.85;7.20;;;;;;;;;;5095039;28;20044;-88
2023/01/08 01:03:40;;;;;;;13.55;8.20;;;;;;;;;;5094126;28;20085;-88
2023/01/08 01:06:08;;;;;;;14.80;6.65;;;;;;;;;;5094847;28;20382;-88
2023/01/08 01:08:35;;;;;;;8.88;6.32;;;;;;;;;;5095086;28;20052;-88
2023/01/08 01:11:06;;;;;;;8.27;6.05;;;;;;;;;;5094947;28;20044;-88
2023/01/08 01:13:33;;;;;;;8.55;6.25;;;;;;;;;;5094910;28;20055;-88
2023/01/08 01:16:01;;;;;;;10.52;6.68;;;;;;;;;;5094189;28;20078;-88
2023/01/08 01:18:29;;;;;;;12.18;7.50;;;;;;;;;;5094662;28;20043;-88
2023/01/08 01:20:56;;;;;;;7.97;5.95;;;;;;;;;;5094716;28;20055;-88
2023/01/08 01:23:23;;;;;;;12.63;6.10;;;;;;;;;;5094902;28;20052;-88
2023/01/08 01:25:50;;;;;;;11.00;7.22;;;;;;;;;;5094458;28;20048;-87
2023/01/08 01:28:18;;;;;;;13.77;7.68;;;;;;;;;;5094621;28;20235;-88
2023/01/08 01:30:45;;;;;;;14.63;7.38;;;;;;;;;;5094243;28;20048;-88
2023/01/08 01:33:12;;;;;;;18.23;7.38;;;;;;;;;;5094483;28;20044;-88
2023/01/08 01:35:39;;;;;;;11.25;6.68;;;;;;;;;;5094177;28;20504;-88
2023/01/08 01:38:06;;;;;;;12.77;7.13;;;;;;;;;;5094583;28;20500;-88
2023/01/08 01:40:34;;;;;;;17.45;7.07;;;;;;;;;;5095702;28;20412;-88
2023/01/08 01:43:01;;;;;;;9.05;6.97;;;;;;;;;;5094181;28;20427;-87
2023/01/08 01:45:28;;;;;;;14.18;8.50;;;;;;;;;;5094189;28;20419;-88
2023/01/08 01:48:00;;;;;;;13.25;8.38;;;;;;;;;;5094258;28;20113;-87
2023/01/08 01:50:32;;;;;;;16.77;10.48;;;;;;;;;;5094165;28;20054;-88
2023/01/08 01:53:07;;;;;;;26.85;10.40;;;;;;;;;;5095245;28;20083;-88
2023/01/08 01:55:35;;;;;;;18.10;9.35;;;;;;;;;;5095270;28;20559;-87
2023/01/08 01:58:08;;;;;;;13.55;8.88;;;;;;;;;;5093944;28;20472;-88
2023/01/08 02:00:35;;;;;;;;;;;;;;;;;;5094391;28;20134;-88
2023/01/08 02:03:04;;;;;;;15.38;8.40;;;;;;;;;;5093235;28;19951;-88
2023/01/08 02:05:51;;;;;;;14.88;7.75;;;;;;;;;;5093901;28;20086;-88
2023/01/08 02:08:30;;;;;;;11.30;7.95;;;;;;;;;;5053808;28;20044;-88
2023/01/08 02:11:05;;;;;;;13.38;9.30;;;;;;;;;;5093520;28;20090;-88
2023/01/08 02:13:36;;;;;;;12.65;9.23;;;;;;;;;;5093616;28;20055;-88
2023/01/08 02:16:03;;;;;;;12.57;9.82;;;;;;;;;;5094163;28;20507;-88
2023/01/08 02:18:34;;;;;;;11.77;8.50;;;;;;;;;;5093444;28;20479;-88
2023/01/08 02:21:04;;;;;;;11.02;9.02;;;;;;;;;;5094341;28;20404;-88
2023/01/08 02:23:45;;;;;;;14.38;10.25;;;;;;;;;;5093520;28;20052;-88
2023/01/08 02:26:21;;;;;;;11.50;10.00;;;;;;;;;;5093184;28;20488;-87
2023/01/08 02:28:57;;;;;;;9.93;7.38;;;;;;;;;;5094200;28;20055;-88
2023/01/08 02:31:25;;;;;;;6.35;5.75;;;;;;;;;;5093082;28;20052;-87
2023/01/08 02:33:52;;;;;;;6.63;5.85;;;;;;;;;;5093460;28;20555;-88
2023/01/08 02:36:38;;;;;;;5.95;5.45;;;;;;;;;;5093359;28;20408;-87
2023/01/08 02:39:24;;;;;;;6.15;5.55;;;;;;;;;;5092906;28;20411;-87
2023/01/08 02:41:54;;;;;;;4.97;4.47;;;;;;;;;;5093150;28;20048;-87
2023/01/08 02:44:25;;;;;;;4.80;4.03;;;;;;;;;;5093337;28;20131;-87
2023/01/08 02:46:54;;;;;;;4.20;3.80;;;;;;;;;;5093153;28;20043;-87
2023/01/08 02:49:23;;;;;;;4.68;4.28;;;;;;;;;;5093128;28;20054;-86
2023/01/08 02:51:53;;;;;;;6.05;4.50;;;;;;;;;;5092766;28;20059;-87
2023/01/08 02:54:23;;;;;;;4.78;4.43;;;;;;;;;;5093131;28;20044;-87
2023/01/08 02:56:53;;;;;;;5.03;4.30;;;;;;;;;;5092873;28;20044;-87
2023/01/08 02:59:21;;;;;;;4.38;3.97;;;;;;;;;;5093294;28;20127;-87
2023/01/08 03:01:48;;;;;;;6.90;5.15;;;;;;;;;;5092849;28;20048;-86
2023/01/08 03:04:18;;;;;;;4.60;4.30;;;;;;;;;;5092947;28;20052;-87
2023/01/08 03:06:45;;;;;;;4.93;4.20;;;;;;;;;;5092746;28;20071;-87
2023/01/08 03:09:13;;;;;;;5.78;4.70;;;;;;;;;;5092774;28;20044;-87
2023/01/08 03:11:43;;;;;;;4.50;3.97;;;;;;;;;;5092787;28;20403;-86
2023/01/08 03:14:15;;;;;;;6.10;4.15;;;;;;;;;;5092670;28;20052;-88
2023/01/08 03:16:47;;;;;;;6.20;4.00;;;;;;;;;;5092453;28;20141;-87
2023/01/08 03:19:16;;;;;;;6.40;4.18;;;;;;;;;;5093024;28;20048;-87
2023/01/08 03:21:45;;;;;;;4.75;4.13;;;;;;;;;;5092743;28;20044;-87
2023/01/08 03:24:13;;;;;;;7.90;4.40;;;;;;;;;;5092732;28;20062;-87
2023/01/08 03:26:42;;;;;;;4.50;4.10;;;;;;;;;;5092462;28;20044;-87
2023/01/08 03:29:15;;;;;;;4.90;4.35;;;;;;;;;;5092852;28;20078;-87
2023/01/08 03:31:43;;;;;;;6.47;4.45;;;;;;;;;;5092242;28;20049;-88
2023/01/08 03:34:12;;;;;;;4.97;4.57;;;;;;;;;;5092655;28;20044;-87
2023/01/08 03:36:41;;;;;;;7.50;4.55;;;;;;;;;;5092441;28;20056;-87
2023/01/08 03:39:14;;;;;;;4.43;4.13;;;;;;;;;;5092511;28;20139;-87
2023/01/08 03:41:42;;;;;;;4.03;3.72;;;;;;;;;;5092434;28;20478;-87
2023/01/08 03:44:09;;;;;;;4.75;4.35;;;;;;;;;;5092295;28;20054;-87
2023/01/08 03:46:41;;;;;;;6.22;4.88;;;;;;;;;;5092286;28;20052;-87
2023/01/08 03:49:09;;;;;;;4.82;4.43;;;;;;;;;;5092604;28;20052;-86
2023/01/08 03:51:44;;;;;;;6.07;4.03;;;;;;;;;;5093169;28;20467;-86
2023/01/08 03:54:13;;;;;;;6.13;4.15;;;;;;;;;;5093349;28;20064;-87
2023/01/08 03:56:40;;;;;;;4.47;4.05;;;;;;;;;;5092160;28;20063;-87
2023/01/08 03:59:07;;;;;;;4.53;4.13;;;;;;;;;;5092299;28;20070;-90
2023/01/08 04:01:34;;;;;;;4.57;4.18;;;;;;;;;;5092061;28;20522;-88
2023/01/08 04:04:02;;;;;;;6.15;3.95;;;;;;;;;;5092369;28;20139;-87
2023/01/08 04:06:29;;;;;;;4.60;4.20;;;;;;;;;;5092220;28;20052;-87
2023/01/08 04:08:56;;;;;;;7.25;4.28;;;;;;;;;;5092173;28;20067;-88
2023/01/08 04:11:23;;;;;;;4.57;4.28;;;;;;;;;;5092048;28;20051;-89
2023/01/08 04:13:50;;;;;;;4.50;4.10;;;;;;;;;;5092188;28;20054;-88
2023/01/08 04:16:18;;;;;;;5.03;4.53;;;;;;;;;;5091817;28;20058;-88
2023/01/08 04:18:47;;;;;;;4.65;4.25;;;;;;;;;;5092090;28;20138;-87
2023/01/08 04:21:15;;;;;;;4.95;4.45;;;;;;;;;;5092311;28;20059;-90
2023/01/08 04:23:42;;;;;;;4.60;4.20;;;;;;;;;;5092125;28;20074;-88
2023/01/08 04:26:09;;;;;;;4.30;3.90;;;;;;;;;;5092984;28;20091;-87
2023/01/08 04:28:37;;;;;;;5.53;4.65;;;;;;;;;;5095732;28;20044;-88
2023/01/08 04:31:05;;;;;;;4.55;4.18;;;;;;;;;;5095566;28;20056;-86
2023/01/08 04:33:32;;;;;;;4.95;4.55;;;;;;;;;;5095613;28;20048;-89
2023/01/08 04:35:59;;;;;;;4.35;3.95;;;;;;;;;;5095404;28;20052;-88
2023/01/08 04:38:27;;;;;;;5.30;4.38;;;;;;;;;;5095542;28;20051;-88
2023/01/08 04:40:57;;;;;;;5.18;4.68;;;;;;;;;;5095384;28;20051;-88
2023/01/08 04:43:25;;;;;;;7.90;5.10;;;;;;;;;;5095471;28;20055;-88
2023/01/08 04:45:58;;;;;;;5.40;4.82;;;;;;;;;;5095039;28;20131;-87
2023/01/08 04:48:26;;;;;;;7.38;4.63;;;;;;;;;;5095342;28;20098;-87
2023/01/08 04:50:53;;;;;;;5.10;4.70;;;;;;;;;;5095142;28;20052;-89
2023/01/08 04:53:20;;;;;;;6.05;5.28;;;;;;;;;;5096221;28;20139;-88
2023/01/08 04:55:47;;;;;;;6.10;5.40;;;;;;;;;;5096134;28;20055;-87
2023/01/08 04:58:14;;;;;;;6.85;5.47;;;;;;;;;;5096278;28;20048;-87
2023/01/08 05:00:42;;;;;;;8.32;5.40;;;;;;;;;;5095062;28;20054;-88
2023/01/08 05:03:09;;;;;;;5.82;5.22;;;;;;;;;;5096260;28;20052;-87
2023/01/08 05:05:37;;;;;;;5.57;5.03;;;;;;;;;;5094735;28;20048;-88
2023/01/08 05:08:04;;;;;;;7.53;5.05;;;;;;;;;;5094881;28;20126;-87
2023/01/08 05:10:31;;;;;;;6.82;5.18;;;;;;;;;;5095783;28;20091;-87
2023/01/08 05:12:59;;;;;;;6.00;5.43;;;;;;;;;;5095052;28;20109;-88
2023/01/08 05:15:26;;;;;;;9.65;6.32;;;;;;;;;;5094678;28;20052;-87
2023/01/08 05:18:01;;;;;;;6.22;5.63;;;;;;;;;;5078216;28;20050;-88
2023/01/08 05:20:28;;;;;;;;;;;;;;;;;;5095365;28;20058;-87
2023/01/08 05:22:57;;;;;;;6.85;5.07;;;;;;;;;;5094816;28;19947;-87
2023/01/08 05:25:24;;;;;;;7.50;5.63;;;;;;;;;;5094636;28;20056;-88
2023/01/08 05:27:52;;;;;;;7.72;6.03;;;;;;;;;;5094486;28;20553;-88
2023/01/08 05:30:19;;;;;;;6.72;6.00;;;;;;;;;;5094543;28;20503;-87
2023/01/08 05:32:46;;;;;;;6.20;5.65;;;;;;;;;;5094419;28;20078;-88
2023/01/08 05:35:13;;;;;;;8.68;6.15;;;;;;;;;;5094538;28;20048;-87
2023/01/08 05:37:40;;;;;;;6.95;6.18;;;;;;;;;;5094244;28;20056;-87
2023/01/08 05:40:08;;;;;;;6.75;6.10;;;;;;;;;;5094309;28;20143;-87
2023/01/08 05:42:36;;;;;;;7.68;6.20;;;;;;;;;;5094223;28;20071;-88
2023/01/08 05:45:04;;;;;;;7.15;6.20;;;;;;;;;;5094136;28;20060;-88
2023/01/08 05:47:32;;;;;;;6.55;5.80;;;;;;;;;;5093951;28;20404;-88
2023/01/08 05:49:59;;;;;;;6.35;5.75;;;;;;;;;;5094160;28;20534;-88
2023/01/08 05:52:26;;;;;;;8.02;6.30;;;;;;;;;;5093969;28;20054;-87
2023/01/08 05:54:53;;;;;;;11.55;9.55;;;;;;;;;;5094110;28;20488;-88
2023/01/08 05:57:21;;;;;;;9.80;8.57;;;;;;;;;;5094060;28;20477;-87
2023/01/08 05:59:48;;;;;;;6.72;6.13;;;;;;;;;;5094257;28;20052;-88
2023/01/08 06:02:15;;;;;;;7.40;6.45;;;;;;;;;;5094082;28;20135;-88
2023/01/08 06:04:43;;;;;;;7.70;6.03;;;;;;;;;;5094297;28;20054;-88
2023/01/08 06:07:12;;;;;;;7.18;6.28;;;;;;;;;;5094077;28;20052;-88
2023/01/08 06:09:39;;;;;;;6.68;6.07;;;;;;;;;;5094116;28;20403;-88
2023/01/08 06:12:07;;;;;;;7.30;6.47;;;;;;;;;;5099425;28;20048;-88
2023/01/08 06:14:34;;;;;;;6.68;6.07;;;;;;;;;;5093826;28;20538;-87
2023/01/08 06:17:01;;;;;;;6.95;6.20;;;;;;;;;;5093482;28;20091;-88
2023/01/08 06:19:30;;;;;;;6.70;6.10;;;;;;;;;;5093674;28;20504;-88
2023/01/08 06:21:57;;;;;;;7.82;6.50;;;;;;;;;;5093937;28;20408;-88
2023/01/08 06:24:25;;;;;;;9.18;7.70;;;;;;;;;;5093871;28;20381;-88
2023/01/08 06:26:52;;;;;;;9.70;8.65;;;;;;;;;;5093497;28;20066;-87
2023/01/08 06:29:19;;;;;;;11.60;8.18;;;;;;;;;;5093699;28;20070;-88
2023/01/08 06:31:46;;;;;;;8.38;7.03;;;;;;;;;;5093434;28;20056;-88
2023/01/08 06:34:13;;;;;;;8.18;7.00;;;;;;;;;;5093520;28;20040;-88
2023/01/08 06:36:41;;;;;;;8.40;7.60;;;;;;;;;;5093431;28;20552;-87
2023/01/08 06:39:08;;;;;;;9.68;6.93;;;;;;;;;;5093568;28;20058;-88
2023/01/08 06:41:35;;;;;;;7.72;6.60;;;;;;;;;;5093346;28;20148;-88
2023/01/08 06:44:02;;;;;;;6.97;6.38;;;;;;;;;;5093469;28;20074;-88
2023/01/08 06:46:30;;;;;;;7.00;6.15;;;;;;;;;;5093178;28;20048;-87
2023/01/08 06:48:57;;;;;;;8.85;6.32;;;;;;;;;;5092920;28;20557;-88
2023/01/08 06:51:24;;;;;;;7.20;6.50;;;;;;;;;;5093168;28;20054;-88
2023/01/08 06:53:52;;;;;;;7.75;6.95;;;;;;;;;;5093270;28;20127;-88
2023/01/08 06:56:19;;;;;;;16.58;13.60;;;;;;;;;;5093029;28;20052;-87
2023/01/08 06:58:46;;;;;;;35.40;24.70;;;;;;;;;;5093017;28;20412;-88
2023/01/08 07:01:15;;;;;;;17.98;12.10;;;;;;;;;;5093052;28;20442;-88
2023/01/08 07:03:42;;;;;;;31.55;14.80;;;;;;;;;;5091896;28;20135;-88
2023/01/08 07:06:15;;;;;;;34.47;17.38;;;;;;;;;;5092500;28;20059;-88
2023/01/08 07:08:43;;;;;;;27.93;10.53;;;;;;;;;;5092847;28;20062;-88
2023/01/08 07:11:10;;;;;;;13.10;7.60;;;;;;;;;;5092900;28;20052;-88
2023/01/08 07:13:37;;;;;;;39.85;24.08;;;;;;;;;;5092903;28;20048;-87
2023/01/08 07:16:12;;;;;;;54.67;30.27;;;;;;;;;;5092527;28;20058;-87
2023/01/08 07:18:39;;;;;;;23.80;11.32;;;;;;;;;;5092707;28;20082;-88
2023/01/08 07:21:07;;;;;;;16.38;9.18;;;;;;;;;;5092537;28;20051;-88
2023/01/08 07:23:34;;;;;;;13.25;7.20;;;;;;;;;;5092811;28;20054;-88
2023/01/08 07:26:02;;;;;;;9.68;7.70;;;;;;;;;;5092680;28;20055;-86
2023/01/08 07:28:30;;;;;;;9.35;7.72;;;;;;;;;;5092875;28;20055;-88
2023/01/08 07:30:57;;;;;;;12.60;8.85;;;;;;;;;;5092400;28;20062;-87
2023/01/08 07:33:24;;;;;;;10.23;9.10;;;;;;;;;;5092620;28;20056;-87
2023/01/08 07:35:52;;;;;;;12.10;9.25;;;;;;;;;;5092516;28;20052;-88
2023/01/08 07:38:19;;;;;;;9.90;8.23;;;;;;;;;;5092822;28;20055;-87
2023/01/08 07:40:47;;;;;;;9.95;8.13;;;;;;;;;;5092687;28;20048;-87
2023/01/08 07:43:14;;;;;;;10.80;8.43;;;;;;;;;;5092732;28;20076;-88
2023/01/08 07:45:41;;;;;;;10.30;8.57;;;;;;;;;;5092432;28;20052;-88
2023/01/08 07:48:09;;;;;;;12.00;7.90;;;;;;;;;;5092699;28;20048;-88
2023/01/08 07:50:37;;;;;;;8.80;7.90;;;;;;;;;;5092697;28;20109;-88
2023/01/08 07:53:07;;;;;;;7.47;6.63;;;;;;;;;;5092540;28;20105;-87
2023/01/08 07:55:34;;;;;;;8.23;7.35;;;;;;;;;;5092604;28;20045;-88
2023/01/08 07:58:06;;;;;;;10.73;7.80;;;;;;;;;;5092544;28;20135;-87
2023/01/08 08:00:33;;;;;;;12.32;7.70;;;;;;;;;;5092708;28;20059;-88
2023/01/08 08:03:04;;;;;;;11.15;8.27;;;;;;;;;;5096503;28;20055;-88
2023/01/08 08:05:32;;;;;;;9.70;7.47;;;;;;;;;;5096406;28;20043;-89
2023/01/08 08:08:00;;;;;;;9.15;7.50;;;;;;;;;;5096602;28;20134;-88
2023/01/08 08:10:27;;;;;;;9.05;7.65;;;;;;;;;;5096276;28;20138;-88
2023/01/08 08:12:54;;;;;;;9.90;7.20;;;;;;;;;;5096121;28;20492;-87
2023/01/08 08:15:22;;;;;;;8.65;7.28;;;;;;;;;;5095864;28;20055;-87
2023/01/08 08:17:51;;;;;;;9.07;7.28;;;;;;;;;;5096292;28;20051;-87
2023/01/08 08:20:18;;;;;;;8.93;7.20;;;;;;;;;;5096105;28;20048;-88
2023/01/08 08:22:46;;;;;;;8.55;7.13;;;;;;;;;;5096124;28;20048;-88
2023/01/08 08:25:14;;;;;;;8.68;7.75;;;;;;;;;;5095854;28;20055;-88
2023/01/08 08:27:42;;;;;;;9.07;7.85;;;;;;;;;;5095747;28;20068;-88
2023/01/08 08:30:10;;;;;;;8.75;7.95;;;;;;;;;;5095870;28;20142;-88
2023/01/08 08:32:37;;;;;;;11.00;8.45;;;;;;;;;;5095766;28;20051;-87
2023/01/08 08:35:05;;;;;;;11.77;8.10;;;;;;;;;;5095662;28;20051;-87
2023/01/08 08:37:32;;;;;;;8.52;7.30;;;;;;;;;;5095707;28;20063;-87
2023/01/08 08:39:59;;;;;;;7.93;7.13;;;;;;;;;;5095619;28;20048;-88
2023/01/08 08:42:26;;;;;;;8.18;7.38;;;;;;;;;;5095593;28;20062;-87
2023/01/08 08:44:54;;;;;;;8.65;7.75;;;;;;;;;;5095326;28;20048;-87
2023/01/08 08:47:21;;;;;;;8.73;7.90;;;;;;;;;;5095321;28;20052;-88
2023/01/08 08:49:48;;;;;;;8.73;7.82;;;;;;;;;;5095326;28;20051;-88
2023/01/08 08:52:15;;;;;;;9.02;8.07;;;;;;;;;;5095155;28;20047;-88
2023/01/08 08:54:42;;;;;;;8.60;7.60;;;;;;;;;;5095229;28;20048;-88
2023/01/08 08:57:10;;;;;;;7.40;6.68;;;;;;;;;;5095244;28;20412;-88
2023/01/08 08:59:37;;;;;;;11.43;9.70;;;;;;;;;;5095166;28;20056;-88
2023/01/08 09:02:05;;;;;;;8.57;7.72;;;;;;;;;;5095154;28;20043;-88
2023/01/08 09:04:33;;;;;;;9.13;8.23;;;;;;;;;;5095378;28;20047;-88
2023/01/08 09:07:00;;;;;;;9.85;8.85;;;;;;;;;;5095048;28;20167;-89
2023/01/08 09:09:27;;;;;;;8.57;7.53;;;;;;;;;;5095050;28;20044;-87
2023/01/08 09:11:55;;;;;;;9.63;7.95;;;;;;;;;;5094381;28;20073;-89
2023/01/08 09:14:22;;;;;;;8.73;7.82;;;;;;;;;;5094741;28;20496;-89
2023/01/08 09:16:50;;;;;;;12.50;8.27;;;;;;;;;;5094470;28;20052;-88
2023/01/08 09:19:17;;;;;;;8.70;7.80;;;;;;;;;;5094949;28;20054;-87
2023/01/08 09:21:44;;;;;;;7.53;6.82;;;;;;;;;;5094883;28;20127;-88
2023/01/08 09:24:11;;;;;;;8.70;7.55;;;;;;;;;;5094791;28;20058;-88
2023/01/08 09:26:39;;;;;;;7.97;7.13;;;;;;;;;;5094675;28;20054;-87
2023/01/08 09:29:06;;;;;;;8.88;7.57;;;;;;;;;;5094632;28;20052;-88
2023/01/08 09:31:33;;;;;;;9.40;8.50;;;;;;;;;;5094592;28;20052;-88
2023/01/08 09:34:00;;;;;;;8.82;7.93;;;;;;;;;;5094612;28;20059;-88
2023/01/08 09:36:28;;;;;;;8.02;7.05;;;;;;;;;;5094355;28;20077;-87
2023/01/08 09:38:55;;;;;;;7.97;7.18;;;;;;;;;;5094269;28;20408;-88
2023/01/08 09:41:26;;;;;;;7.60;6.72;;;;;;;;;;5094534;28;20050;-88
2023/01/08 09:43:54;;;;;;;7.80;6.97;;;;;;;;;;5094372;28;20062;-88
2023/01/08 09:46:23;;;;;;;8.05;6.93;;;;;;;;;;5094126;28;20078;-87
2023/01/08 09:48:51;;;;;;;8.73;7.15;;;;;;;;;;5094236;28;20441;-88
2023/01/08 09:51:19;;;;;;;7.65;6.85;;;;;;;;;;5094321;28;20143;-87
2023/01/08 09:53:50;;;;;;;7.57;6.60;;;;;;;;;;5093988;28;20062;-88
2023/01/08 09:56:18;;;;;;;7.97;7.05;;;;;;;;;;5094018;28;20404;-88
2023/01/08 09:58:45;;;;;;;7.88;7.07;;;;;;;;;;5094036;28;20048;-88
2023/01/08 10:01:14;;;;;;;9.60;7.43;;;;;;;;;;5094039;28;20396;-88
2023/01/08 10:03:47;;;;;;;13.25;8.13;;;;;;;;;;5093912;28;20481;-88
2023/01/08 10:06:15;;;;;;;21.27;15.68;;;;;;;;;;5093895;28;20101;-88
2023/01/08 10:08:43;;;;;;;15.40;8.82;;;;;;;;;;5094098;28;20055;-88
2023/01/08 10:11:12;;;;;;;11.82;8.55;;;;;;;;;;5093759;28;20090;-88
2023/01/08 10:13:41;;;;;;;8.70;6.85;;;;;;;;;;5093205;28;20054;-88
2023/01/08 10:16:10;;;;;;;7.75;6.80;;;;;;;;;;5093455;28;20416;-88
2023/01/08 10:18:40;;;;;;;6.93;6.22;;;;;;;;;;5093809;28;20059;-88
2023/01/08 10:21:09;;;;;;;19.70;8.43;;;;;;;;;;5093807;28;20260;-88
2023/01/08 10:23:36;;;;;;;7.55;6.03;;;;;;;;;;5092882;28;20052;-87
2023/01/08 10:26:04;;;;;;;5.80;5.28;;;;;;;;;;5093662;28;20400;-88
2023/01/08 10:28:35;;;;;;;8.90;7.05;;;;;;;;;;5093451;28;20093;-87
2023/01/08 10:31:08;;;;;;;10.30;6.53;;;;;;;;;;5093526;28;20506;-88
2023/01/08 10:33:40;;;;;;;6.83;5.87;;;;;;;;;;5093315;28;20052;-88
2023/01/08 10:36:08;;;;;;;8.35;6.28;;;;;;;;;;5093493;28;20479;-88
2023/01/08 10:38:37;;;;;;;8.85;6.05;;;;;;;;;;5093312;28;20568;-88
2023/01/08 10:41:06;;;;;;;6.45;5.85;;;;;;;;;;5092951;28;20134;-88
2023/01/08 10:43:35;;;;;;;6.50;5.78;;;;;;;;;;5093367;28;20040;-88
2023/01/08 10:46:02;;;;;;;5.97;5.47;;;;;;;;;;5096623;28;20063;-88
2023/01/08 10:48:32;;;;;;;6.10;5.55;;;;;;;;;;5096764;28;20052;-88
2023/01/08 10:51:07;;;;;;;7.13;6.43;;;;;;;;;;5093108;28;20136;-88
2023/01/08 10:53:34;;;;;;;6.82;6.13;;;;;;;;;;5092915;28;20076;-88
2023/01/08 10:56:03;;;;;;;9.40;6.35;;;;;;;;;;5092848;28;20047;-88
2023/01/08 10:58:40;;;;;;;6.53;5.93;;;;;;;;;;5093103;28;20250;-88
2023/01/08 11:01:30;;;;;;;8.25;5.68;;;;;;;;;;5093173;28;20044;-88
2023/01/08 11:03:58;;;;;;;6.57;5.97;;;;;;;;;;5092848;28;20047;-88
2023/01/08 11:06:30;;;;;;;6.75;6.05;;;;;;;;;;5092907;28;20078;-88
2023/01/08 11:08:59;;;;;;;6.28;5.63;;;;;;;;;;5093794;28;20124;-88
2023/01/08 11:11:33;;;;;;;8.05;6.53;;;;;;;;;;5092622;28;20579;-88
2023/01/08 11:14:03;;;;;;;5.80;5.30;;;;;;;;;;5092902;28;20269;-88
2023/01/08 11:16:32;;;;;;;6.00;5.50;;;;;;;;;;5093544;28;20109;-88
2023/01/08 11:19:00;;;;;;;5.90;5.40;;;;;;;;;;5093724;28;20044;-88
2023/01/08 11:21:31;;;;;;;5.72;5.13;;;;;;;;;;5092726;28;20530;-88
2023/01/08 11:24:02;;;;;;;5.60;5.10;;;;;;;;;;5092610;28;20389;-88
2023/01/08 11:26:29;;;;;;;5.57;5.07;;;;;;;;;;5092369;28;20043;-88
2023/01/08 11:29:07;;;;;;;5.65;5.03;;;;;;;;;;5092606;28;20480;-88
2023/01/08 11:31:39;;;;;;;5.15;4.72;;;;;;;;;;5092863;28;20476;-88
2023/01/08 11:34:28;;;;;;;4.38;4.07;;;;;;;;;;5092567;28;20127;-88
2023/01/08 11:37:02;;;;;;;5.63;4.65;;;;;;;;;;5096498;28;20048;-88
2023/01/08 11:39:29;;;;;;;4.35;4.05;;;;;;;;;;5096617;28;20123;-88
2023/01/08 11:42:14;;;;;;;5.07;4.35;;;;;;;;;;5097772;28;20055;-88
2023/01/08 11:45:00;;;;;;;4.30;4.00;;;;;;;;;;5096517;28;20052;-89
2023/01/08 11:47:56;;;;;;;4.43;4.10;;;;;;;;;;5096383;28;20052;-88
2023/01/08 11:50:28;;;;;;;5.00;4.53;;;;;;;;;;5027029;28;20486;-88
2023/01/08 11:53:10;;;;;;;8.15;6.30;;;;;;;;;;5097238;28;20048;-88
2023/01/08 11:55:56;;;;;;;4.00;3.72;;;;;;;;;;5096284;28;20054;-88
2023/01/08 11:58:30;;;;;;;4.85;4.20;;;;;;;;;;5096490;28;20488;-89
2023/01/08 12:01:09;;;;;;;3.78;3.53;;;;;;;;;;5097652;28;20381;-88
2023/01/08 12:03:37;;;;;;;3.78;3.47;;;;;;;;;;5097253;28;20180;-88
2023/01/08 12:06:24;;;;;;;3.65;3.42;;;;;;;;;;5097297;28;20105;-89
2023/01/08 12:08:57;;;;;;;3.50;3.22;;;;;;;;;;5097443;28;20052;-88
2023/01/08 12:11:28;;;;;;;3.58;3.28;;;;;;;;;;5097837;28;20052;-87
2023/01/08 12:14:17;;;;;;;3.72;3.42;;;;;;;;;;5096955;28;20059;-88
2023/01/08 12:16:50;;;;;;;3.85;3.55;;;;;;;;;;5096864;28;20048;-88
2023/01/08 12:19:27;;;;;;;3.60;3.40;;;;;;;;;;5097728;28;20070;-89
2023/01/08 12:22:03;;;;;;;2.92;2.72;;;;;;;;;;5097352;28;20052;-87
2023/01/08 12:24:37;;;;;;;3.40;3.20;;;;;;;;;;5097652;28;20150;-87
2023/01/08 12:27:26;;;;;;;3.08;2.88;;;;;;;;;;5097242;28;20056;-87
2023/01/08 12:30:13;;;;;;;3.22;3.03;;;;;;;;;;5097107;28;20044;-88
2023/01/08 12:32:47;;;;;;;2.70;2.47;;;;;;;;;;5097449;28;20094;-88
2023/01/08 12:35:14;;;;;;;2.85;2.65;;;;;;;;;;5097557;28;20048;-88
2023/01/08 12:37:48;;;;;;;2.65;2.35;;;;;;;;;;5097060;28;20048;-88
2023/01/08 12:40:26;;;;;;;2.97;2.72;;;;;;;;;;5097395;28;20058;-89
2023/01/08 12:42:54;;;;;;;2.33;2.10;;;;;;;;;;5097409;28;20070;-88
2023/01/08 12:45:28;;;;;;;2.55;2.35;;;;;;;;;;5097270;28;20130;-88
2023/01/08 12:48:02;;;;;;;2.10;2.00;;;;;;;;;;5096175;28;20411;-88
2023/01/08 12:50:36;;;;;;;2.10;2.00;;;;;;;;;;5095575;28;20406;-86
2023/01/08 12:53:03;;;;;;;;;;;;;;;;;;5096015;28;20044;-88
2023/01/08 12:55:34;;;;;;;3.70;3.40;;;;;;;;;;5095138;28;19927;-87
2023/01/08 12:58:07;;;;;;;2.35;2.25;;;;;;;;;;5097007;28;20044;-88
2023/01/08 13:00:39;;;;;;;2.70;2.50;;;;;;;;;;5098576;28;20108;-88
2023/01/08 13:03:13;;;;;;;2.10;1.92;;;;;;;;;;5098269;28;20143;-88
2023/01/08 13:05:42;;;;;;;2.10;2.00;;;;;;;;;;5095622;28;20051;-88
2023/01/08 13:08:24;;;;;;;1.63;1.63;;;;;;;;;;5096242;28;20078;-88
2023/01/08 13:10:53;;;;;;;1.85;1.75;;;;;;;;;;5094911;28;20143;-88
2023/01/08 13:13:28;;;;;;;1.88;1.77;;;;;;;;;;5094846;28;20052;-88
2023/01/08 13:16:06;;;;;;;1.80;1.70;;;;;;;;;;5094996;28;20052;-88
2023/01/08 13:18:34;;;;;;;1.88;1.77;;;;;;;;;;5095085;28;20044;-88
2023/01/08 13:21:02;;;;;;;1.80;1.70;;;;;;;;;;5095416;28;20068;-87
2023/01/08 13:23:34;;;;;;;2.00;1.90;;;;;;;;;;5094890;28;20419;-88
2023/01/08 13:26:03;;;;;;;2.17;1.58;;;;;;;;;;5094840;28;20396;-88
2023/01/08 13:28:36;;;;;;;2.20;2.10;;;;;;;;;;5094048;28;20048;-88
2023/01/08 13:31:24;;;;;;;2.30;2.20;;;;;;;;;;5094097;28;20401;-88
2023/01/08 13:33:52;;;;;;;2.03;1.90;;;;;;;;;;5094187;28;20056;-87
2023/01/08 13:36:21;;;;;;;2.20;2.10;;;;;;;;;;5094458;28;20130;-88
2023/01/08 13:39:07;;;;;;;1.88;1.77;;;;;;;;;;5094300;28;20055;-86
2023/01/08 13:41:53;;;;;;;1.42;1.35;;;;;;;;;;5094466;28;20063;-88
2023/01/08 13:44:28;;;;;;;2.40;2.28;;;;;;;;;;5094402;28;20055;-88
2023/01/08 13:46:57;;;;;;;2.00;1.90;;;;;;;;;;5094328;28;20051;-88
2023/01/08 13:49:31;;;;;;;2.10;2.00;;;;;;;;;;5094380;28;20075;-87
2023/01/08 13:51:58;;;;;;;1.98;1.88;;;;;;;;;;5094001;28;20503;-87
2023/01/08 13:54:31;;;;;;;3.00;2.30;;;;;;;;;;5093968;28;20054;-87
2023/01/08 13:57:03;;;;;;;2.35;2.15;;;;;;;;;;5094010;28;20051;-87
2023/01/08 13:59:41;;;;;;;2.38;2.10;;;;;;;;;;5092849;28;20071;-88
2023/01/08 14:02:23;;;;;;;2.40;2.05;;;;;;;;;;5094062;28;20056;-87
2023/01/08 14:04:51;;;;;;;1.80;1.70;;;;;;;;;;5093846;28;20098;-88
2023/01/08 14:07:18;;;;;;;6.38;4.32;;;;;;;;;;5093912;28;20052;-88
2023/01/08 14:09:46;;;;;;;4.65;4.00;;;;;;;;;;5093882;28;20048;-88
2023/01/08 14:12:21;;;;;;;3.03;2.80;;;;;;;;;;5093870;28;20172;-88
2023/01/08 14:14:50;;;;;;;3.80;2.38;;;;;;;;;;5093485;28;20044;-88
2023/01/08 14:17:18;;;;;;;1.90;1.80;;;;;;;;;;5093528;28;20040;-87
2023/01/08 14:19:45;;;;;;;1.98;1.80;;;;;;;;;;5093507;28;20052;-88
2023/01/08 14:22:18;;;;;;;1.73;1.63;;;;;;;;;;5093521;28;20044;-88
2023/01/08 14:24:45;;;;;;;1.90;1.80;;;;;;;;;;5093486;28;20047;-88
2023/01/08 14:27:21;;;;;;;1.65;1.50;;;;;;;;;;5093602;28;20048;-88
2023/01/08 14:29:48;;;;;;;1.83;1.20;;;;;;;;;;5093545;28;20075;-87
2023/01/08 14:32:23;;;;;;;1.10;1.10;;;;;;;;;;5093318;28;20412;-88
2023/01/08 14:34:50;;;;;;;0.90;0.90;;;;;;;;;;5091774;28;20512;-88
2023/01/08 14:37:18;;;;;;;1.00;1.00;;;;;;;;;;5092418;28;20052;-88
2023/01/08 14:39:52;;;;;;;0.90;0.90;;;;;;;;;;5092849;28;20051;-87
2023/01/08 14:42:42;;;;;;;1.20;1.10;;;;;;;;;;5092415;28;20047;-87
2023/01/08 14:45:13;;;;;;;0.93;0.93;;;;;;;;;;5092185;28;20133;-87
2023/01/08 14:47:48;;;;;;;0.90;0.90;;;;;;;;;;5092320;28;20066;-88
2023/01/08 14:50:24;;;;;;;1.30;1.30;;;;;;;;;;5092616;28;20052;-87
2023/01/08 14:52:52;;;;;;;1.05;0.98;;;;;;;;;;5092207;28;20066;-88
2023/01/08 14:55:20;;;;;;;1.33;1.02;;;;;;;;;;5092088;28;20052;-87
2023/01/08 14:57:52;;;;;;;1.30;1.00;;;;;;;;;;5091721;28;20216;-88